Renderfarm Status:OK
Avg Time Per Frame:16.6 min/frame
Total Users Today:35
Total CPU Time Today:2299.42 Hours
Total Frames Waiting:2813
Today's CPU Champion:trober24 / 8 days 5 hr
Active Jobs
Job User Frames Renderer Total CPU Average Start End Status
9001 whuang22 250 mayatomr 0 Hours 0 min 04/29 08:44 PM Ready
8999 juboon20 201 rman 0 Hours 0 min 04/29 08:30 PM Ready
8998 yickng20 221 rman 0 Hours 0 min 04/29 08:19 PM Ready
8996 kdunca22 114 mayatomr 0 Hours 0 min 04/29 08:05 PM Ready
8995 jelove20 180 mayatomr 0 Hours 0 min 04/29 08:01 PM Ready
8994 gcrane20 250 houdini 0 Hours 0 min 04/29 07:44 PM Ready
8993 clirea20 250 rman 0 Hours 0 min 04/29 07:11 PM Ready
8992 ajohns58 240 mayatomr 0 Hours 0 min 04/29 07:05 PM Ready
8991 yonkoh20 250 rman 0 Hours 0 min 04/29 06:55 PM Ready
8990 cbense21 80 rman 0 Hours 0 min 04/29 06:47 PM Ready
8989 fagmal20 158 rman 0 Hours 0 min 04/29 06:12 PM Ready
8988 howang20 137 mayatomr 0 Hours 0 min 04/29 06:07 PM Ready
8986 jkriza20 140 mayatomr 0 Hours 0 min 04/29 05:31 PM Ready
8985 gilard20 240 houdini 5.28 Hours 11.7 min 04/29 05:22 PM Rendering
8984 sranap20 250 rman 89.2 Hours 28.3 min 04/29 05:00 PM Rendering
8977 hsutar20 250 rman 8.45 Hours 50.7 min 04/29 01:56 PM Rendering
8952 danger20 11 houdini 0.73 Hours 43.7 min 04/29 08:57 AM Rendering
8950 dansoo20 3 houdini 0.97 Hours 58 min 04/29 08:54 AM Rendering
Completed Jobs
Job User Frames Renderer Total CPU Average Start End Speedup Status
9000 whuang22 250 mayatomr 0 Hours 0 min 04/29 08:43 PM 04/29 08:44 PM 0x Complete!
8997 yickng20 221 rman 0 Hours 0 min 04/29 08:19 PM 0x Complete!
8987 yonkoh20 8 rman 0 Hours 0 min 04/29 05:45 PM 04/29 06:55 PM 0x Complete!
8983 idahem20 80 rman 30.95 Hours 23.2 min 04/29 04:42 PM 04/29 08:08 PM 9x Complete!
8982 kdunca22 115 mayatomr 2.42 Hours 1.6 min 04/29 04:32 PM 04/29 07:25 PM 0.8x Complete!
8981 gander22 180 arnold 129.06 Hours 43 min 04/29 04:11 PM 04/29 09:02 PM 26.7x Complete!
8980 gander22 180 arnold 0 Hours 0 min 04/29 02:56 PM 04/29 04:07 PM 0x Complete!
8979 jelove20 180 mayatomr 11.8 Hours 3.9 min 04/29 02:51 PM 04/29 05:03 PM 5.4x Complete!
8978 wvonje20 4 mayatomr 0.77 Hours 11.5 min 04/29 02:17 PM 04/29 05:00 PM 0.3x Complete!
8976 athoma34 45 rman 25.41 Hours 33.9 min 04/29 01:51 PM 04/29 09:14 PM 3.4x Complete!
8975 gilard20 1 houdini 0.23 Hours 13.6 min 04/29 12:53 PM 04/29 04:59 PM 0.1x Complete!
8974 howang20 57 mayatomr 1.69 Hours 1.8 min 04/29 12:46 PM 04/29 04:47 PM 0.4x Complete!
8973 yonkoh20 250 rman 56.58 Hours 13.6 min 04/29 11:59 AM 04/29 05:07 PM 11x Complete!
8972 zirali20 100 arnold 0.74 Hours 0.4 min 04/29 11:55 AM 04/29 04:04 PM 0.2x Complete!
8971 ajohns58 240 mayatomr 11.51 Hours 2.9 min 04/29 11:53 AM 04/29 04:05 PM 2.7x Complete!
8970 lmidgl20 241 mayatomr 35.17 Hours 8.8 min 04/29 11:52 AM 04/29 03:23 PM 10x Complete!
8969 wvonje20 51 mayatomr 7.15 Hours 8.4 min 04/29 11:32 AM 04/29 01:43 PM 3.3x Complete!
8968 apalme22 250 mayatomr 48.15 Hours 11.6 min 04/29 11:32 AM 04/29 01:34 PM 23.7x Complete!
8967 ancady20 160 mayatomr 10.03 Hours 3.8 min 04/29 11:31 AM 04/29 12:42 PM 8.5x Complete!
8966 whuang22 20 mayatomr 0 Hours 0 min 04/29 11:18 AM 04/29 11:49 AM 0x Complete!
8965 gilard20 25 houdini 5.56 Hours 13.3 min 04/29 10:51 AM 04/29 12:38 PM 3.1x Complete!
8964 trober24 201 mayatomr 92.22 Hours 27.5 min 04/29 10:41 AM 04/29 01:45 PM 30.1x Complete!
8963 whuang22 1 mayatomr 0 Hours 0 min 04/29 10:35 AM 04/29 11:14 AM 0x Complete!
8962 yonkoh20 250 rman 70.61 Hours 16.9 min 04/29 10:18 AM 04/29 11:58 AM 42.1x Complete!
8961 gilard20 1 houdini 0.19 Hours 11.4 min 04/29 09:58 AM 04/29 10:45 AM 0.2x Complete!
8960 apalme22 250 mayatomr 83.62 Hours 20.1 min 04/29 09:55 AM 04/29 10:49 AM 91.7x Complete!
8959 nigarg20 170 rman 38.18 Hours 13.5 min 04/29 09:51 AM 04/29 10:27 AM 64.7x Complete!
8958 gilard20 1 houdini 0.12 Hours 7.2 min 04/29 09:46 AM 04/29 09:53 AM 1x Complete!
8957 whuang22 1 mayatomr 0.21 Hours 12.8 min 04/29 09:46 AM 04/29 09:59 AM 1x Complete!
8956 nigarg20 40 rman 2.27 Hours 3.4 min 04/29 09:43 AM 04/29 09:47 AM 29.7x Complete!
8955 gilard20 1 houdini 0.1 Hours 5.7 min 04/29 09:39 AM 04/29 09:45 AM 1x Complete!
8954 whuang22 1 mayatomr 0.32 Hours 19.3 min 04/29 09:22 AM 04/29 09:42 AM 1x Complete!
8953 apalme22 51 mayatomr 12.58 Hours 14.8 min 04/29 09:16 AM 04/29 09:35 AM 40.8x Complete!
8951 whuang22 21 mayatomr 0 Hours 0 min 04/29 08:54 AM 04/29 08:56 AM 0x Complete!
8949 whuang22 250 mayatomr 87.65 Hours 21 min 04/29 05:54 AM 04/29 07:54 AM 43.8x Complete!
8948 whuang22 250 mayatomr 0 Hours 0 min 04/29 05:23 AM 04/29 05:48 AM 0x Complete!
8947 lmidgl20 240 mayatomr 60.25 Hours 15.1 min 04/29 02:42 AM 04/29 07:13 AM 13.3x Complete!
8946 yickng20 221 rman 0 Hours 0 min 04/29 02:27 AM 04/29 08:13 PM 0x Complete!
8945 lmidgl20 240 mayatomr 0 Hours 0 min 04/29 02:20 AM 04/29 02:31 AM 0x Complete!
8944 wezhao20 181 rman 12.89 Hours 4.3 min 04/29 02:00 AM 04/29 06:45 AM 2.7x Complete!
8943 cychau20 250 rman 41.34 Hours 9.9 min 04/29 01:59 AM 04/29 06:40 AM 8.8x Complete!
8942 aespin22 250 rman 24.89 Hours 6 min 04/29 01:58 AM 04/29 06:19 AM 5.7x Complete!
8941 ivfung20 26 rman 22.83 Hours 52.7 min 04/29 01:48 AM 04/29 08:35 PM 1.2x Complete!
8940 mmckin22 96 rman 12.16 Hours 7.6 min 04/29 01:29 AM 04/29 07:32 AM 2x Complete!
8939 trober24 201 mayatomr 105.27 Hours 31.4 min 04/29 01:22 AM 04/29 06:34 AM 20.2x Complete!
8938 nigarg20 170 rman 18.97 Hours 6.7 min 04/29 01:15 AM 04/29 05:22 AM 4.6x Complete!
8937 nperez23 200 mayatomr 97.7 Hours 29.3 min 04/29 12:57 AM 04/29 08:20 PM 5x Complete!
8936 mmccor27 180 arnold 81.93 Hours 27.3 min 04/29 12:10 AM 04/29 07:17 AM 11.5x Complete!
8935 juboon20 250 rman 48.31 Hours 11.6 min 04/28 11:40 PM 04/29 05:12 AM 8.7x Complete!
8934 gilard20 61 houdini 17.81 Hours 17.5 min 04/28 11:33 PM 04/29 05:08 AM 3.2x Complete!
Copyright 2014 Savannah College of Art and Design